Terminal Aerodrome Forecast
Issued by NWS Green Bay, WI

Home | Current Version | Previous Version | Text Only | Print | Product List | Glossary Off
Versions: 1 2 3 4 5 6 7 8 9 10 11 12 13 14 15 16 17 18 19 20 21 22 23 24 25 26 27 28 29 30 31 32 33 34 35 36

000
FTUS43 KGRB 230500
TAFGRB
TAF
KGRB 230520Z 2306/2406 22015G20KT P6SM OVC015 WS015/24035KT
     FM231600 23013G21KT P6SM SCT018 OVC080 PROB30 2318/2321 5SM
      -RASNPL BR BKN018
     FM232100 23012G18KT 6SM -SN SCT012 OVC020
      TEMPO 2321/2401 4SM -FZDZSN BR BKN012
     FM240100 26008KT P6SM -FZDZSN BKN015 OVC050
     FM240400 27007KT P6SM OVC015=

USA.gov is the U.S. government's official web portal to all federal, state and local government web resources and services.